South Milwaukee, WI (53172)

8:57 AM CST on February 26, 2017 (GMT -0600)
South Milwaukee | | Change Station

Elev 659 ft 42.90 °N, 87.86 °W | Updated 46 seconds ago

Overcast
Overcast
31.1 °F
Feels Like 27 °F
N
4.0
Wind Variable Wind from SE
Gusts 7.4 mph

Today
High -- | Low -- °F
--% Chance of Precip.
Yesterday
High -- | Low -- °F
Precip. -- in
Pressure 29.94 in
Visibility 10.0 miles
Clouds Few 5000 ft
Mostly Cloudy 7000 ft
Overcast 8000 ft
Windchill 27 °F
Dew Point 20 °F
Humidity 62%
Rainfall 0.00 in
Snow Depth Not available.
6:31 AM 5:37 PM
Waning Crescent, 0% visible
METAR KMKE 261452Z 21014G21KT 10SM FEW050 BKN070 OVC080 00/M08 A2991 RMK AO2 SLP138 T00001078 56016
Pressure 29.94 in
Visibility 10.0 miles
Clouds Few 5000 ft
Mostly Cloudy 7000 ft
Overcast 8000 ft
Windchill 27 °F
Dew Point 20 °F
Humidity 62%
Rainfall 0.00 in
Snow Depth Not available.
6:31 AM 5:37 PM
Waning Crescent, 0% visible
METAR KMKE 261452Z 21014G21KT 10SM FEW050 BKN070 OVC080 00/M08 A2991 RMK AO2 SLP138 T00001078 56016

Get Your Daily Forecast Email!

Thanks for signing up!

Be on the lookout for a verification email in your inbox.

You'll start receiving the daily forecast at 8 AM.

×

10-Day Weather Forecast

Almanac

Astronomy

Feb. 26, 2017 Rise Set
Actual Time
Civil Twilight
Nautical Twilight
Astronomical Twilight
Moon
Length of Visible Light
Length of Day
Tomorrow will be .
, % of the Moon is Illuminated

Today's Extremes

State Highs State Lows

Community

WunderPhotos

Upload Photos

1,962,540 photos uploaded!

WunderBlog® & News

Nearby

Air Quality

  Air Quality AQ Index Pollutant
Not available.

Snow Depth

Station Depth Elevation

Earthquake Activity

City Distance Mag. Time & Date
Minimum magnitude displayed is 2.5.

Coastal Water Temperatures

Place Temperature

Stations

Nearby Weather Stations

Station Location Temp. Windchill Dew Point Humidity Wind Precip. Elev Updated Type
                   

Watches & Warnings

There are currently no watches in effect.